sensor_id;sensor_type;location;lat;lon;timestamp;temperature;humidity
65239;SHT30;51827;51.186;6.926;2023-04-01T00:00:00;19.26;55.17
65239;SHT30;51827;51.186;6.926;2023-04-01T00:01:00;19.29;55.23
65239;SHT30;51827;51.186;6.926;2023-04-01T00:02:01;19.27;55.17
65239;SHT30;51827;51.186;6.926;2023-04-01T00:03:01;19.29;55.20
65239;SHT30;51827;51.186;6.926;2023-04-01T00:04:01;19.29;55.20
65239;SHT30;51827;51.186;6.926;2023-04-01T00:05:01;19.24;55.23
65239;SHT30;51827;51.186;6.926;2023-04-01T00:06:02;19.29;55.19
65239;SHT30;51827;51.186;6.926;2023-04-01T00:07:02;19.29;55.19
65239;SHT30;51827;51.186;6.926;2023-04-01T00:08:02;19.27;55.20
65239;SHT30;51827;51.186;6.926;2023-04-01T00:09:03;19.26;55.21
65239;SHT30;51827;51.186;6.926;2023-04-01T00:10:07;19.27;55.21
65239;SHT30;51827;51.186;6.926;2023-04-01T00:11:08;19.26;55.19
65239;SHT30;51827;51.186;6.926;2023-04-01T00:12:08;19.23;55.23
65239;SHT30;51827;51.186;6.926;2023-04-01T00:13:09;19.24;55.20
65239;SHT30;51827;51.186;6.926;2023-04-01T00:14:10;19.26;55.18
65239;SHT30;51827;51.186;6.926;2023-04-01T00:15:11;19.27;55.19
65239;SHT30;51827;51.186;6.926;2023-04-01T00:16:12;19.29;55.22
65239;SHT30;51827;51.186;6.926;2023-04-01T00:17:13;19.27;55.20
65239;SHT30;51827;51.186;6.926;2023-04-01T00:18:13;19.27;55.17
65239;SHT30;51827;51.186;6.926;2023-04-01T00:19:14;19.27;55.15
65239;SHT30;51827;51.186;6.926;2023-04-01T00:20:14;19.24;55.18
65239;SHT30;51827;51.186;6.926;2023-04-01T00:21:15;19.26;55.20
65239;SHT30;51827;51.186;6.926;2023-04-01T00:22:15;19.24;55.20
65239;SHT30;51827;51.186;6.926;2023-04-01T00:23:16;19.24;55.19
65239;SHT30;51827;51.186;6.926;2023-04-01T00:24:16;19.26;55.20
65239;SHT30;51827;51.186;6.926;2023-04-01T00:25:17;19.24;55.16
65239;SHT30;51827;51.186;6.926;2023-04-01T00:26:18;19.27;55.19
65239;SHT30;51827;51.186;6.926;2023-04-01T00:27:19;19.24;55.19
65239;SHT30;51827;51.186;6.926;2023-04-01T00:28:19;19.24;55.19
65239;SHT30;51827;51.186;6.926;2023-04-01T00:29:20;19.26;55.17
65239;SHT30;51827;51.186;6.926;2023-04-01T00:30:20;19.26;55.18
65239;SHT30;51827;51.186;6.926;2023-04-01T00:31:20;19.26;55.17
65239;SHT30;51827;51.186;6.926;2023-04-01T00:32:21;19.26;55.16
65239;SHT30;51827;51.186;6.926;2023-04-01T00:33:21;19.24;55.18
65239;SHT30;51827;51.186;6.926;2023-04-01T00:34:21;19.24;55.17
65239;SHT30;51827;51.186;6.926;2023-04-01T00:35:21;19.26;55.14
65239;SHT30;51827;51.186;6.926;2023-04-01T00:36:22;19.27;55.14
65239;SHT30;51827;51.186;6.926;2023-04-01T00:37:22;19.23;55.16
65239;SHT30;51827;51.186;6.926;2023-04-01T00:38:22;19.24;55.16
65239;SHT30;51827;51.186;6.926;2023-04-01T00:39:22;19.26;55.18
65239;SHT30;51827;51.186;6.926;2023-04-01T00:41:26;19.24;55.14
65239;SHT30;51827;51.186;6.926;2023-04-01T00:42:26;19.24;55.10
65239;SHT30;51827;51.186;6.926;2023-04-01T00:43:27;19.23;55.15
65239;SHT30;51827;51.186;6.926;2023-04-01T00:44:30;19.26;55.14
65239;SHT30;51827;51.186;6.926;2023-04-01T00:46:34;19.24;55.14
65239;SHT30;51827;51.186;6.926;2023-04-01T00:47:34;19.24;55.16
65239;SHT30;51827;51.186;6.926;2023-04-01T00:48:37;19.23;55.11
65239;SHT30;51827;51.186;6.926;2023-04-01T00:49:40;19.24;55.13
65239;SHT30;51827;51.186;6.926;2023-04-01T00:50:46;19.26;55.16
65239;SHT30;51827;51.186;6.926;2023-04-01T00:51:50;19.26;55.13
65239;SHT30;51827;51.186;6.926;2023-04-01T00:52:52;19.23;55.14
65239;SHT30;51827;51.186;6.926;2023-04-01T00:53:53;19.23;55.11
65239;SHT30;51827;51.186;6.926;2023-04-01T00:54:57;19.23;55.13
65239;SHT30;51827;51.186;6.926;2023-04-01T00:56:18;19.23;55.13
65239;SHT30;51827;51.186;6.926;2023-04-01T00:57:25;19.22;55.10
65239;SHT30;51827;51.186;6.926;2023-04-01T00:58:29;19.22;55.12
65239;SHT30;51827;51.186;6.926;2023-04-01T00:59:34;19.23;55.14
65239;SHT30;51827;51.186;6.926;2023-04-01T01:00:35;19.22;55.13
65239;SHT30;51827;51.186;6.926;2023-04-01T01:01:36;19.23;55.16
65239;SHT30;51827;51.186;6.926;2023-04-01T01:02:38;19.22;55.14
65239;SHT30;51827;51.186;6.926;2023-04-01T01:03:38;19.24;55.12
65239;SHT30;51827;51.186;6.926;2023-04-01T01:04:38;19.23;55.14
65239;SHT30;51827;51.186;6.926;2023-04-01T01:05:52;19.22;55.13
65239;SHT30;51827;51.186;6.926;2023-04-01T01:08:43;19.23;55.09
65239;SHT30;51827;51.186;6.926;2023-04-01T01:10:56;19.20;55.12
65239;SHT30;51827;51.186;6.926;2023-04-01T01:13:26;19.20;55.13
65239;SHT30;51827;51.186;6.926;2023-04-01T01:15:58;19.19;55.13
65239;SHT30;51827;51.186;6.926;2023-04-01T01:18:44;19.23;55.14
65239;SHT30;51827;51.186;6.926;2023-04-01T01:19:57;19.20;55.14
65239;SHT30;51827;51.186;6.926;2023-04-01T01:22:42;19.19;55.09
65239;SHT30;51827;51.186;6.926;2023-04-01T01:24:12;19.22;55.15
65239;SHT30;51827;51.186;6.926;2023-04-01T01:27:08;19.20;55.15
65239;SHT30;51827;51.186;6.926;2023-04-01T01:28:36;19.20;55.10
65239;SHT30;51827;51.186;6.926;2023-04-01T01:30:00;19.19;55.09
65239;SHT30;51827;51.186;6.926;2023-04-01T01:32:48;19.19;55.15
65239;SHT30;51827;51.186;6.926;2023-04-01T01:34:00;19.19;55.16
65239;SHT30;51827;51.186;6.926;2023-04-01T01:36:20;19.19;55.14
65239;SHT30;51827;51.186;6.926;2023-04-01T01:37:24;19.18;55.17
65239;SHT30;51827;51.186;6.926;2023-04-01T01:38:28;19.19;55.15
65239;SHT30;51827;51.186;6.926;2023-04-01T01:39:31;19.18;55.13
65239;SHT30;51827;51.186;6.926;2023-04-01T01:40:34;19.18;55.14
65239;SHT30;51827;51.186;6.926;2023-04-01T01:41:36;19.20;55.15
65239;SHT30;51827;51.186;6.926;2023-04-01T01:42:40;19.18;55.16
65239;SHT30;51827;51.186;6.926;2023-04-01T01:43:44;19.20;55.16
65239;SHT30;51827;51.186;6.926;2023-04-01T01:44:48;19.19;55.13
65239;SHT30;51827;51.186;6.926;2023-04-01T01:45:52;19.19;55.14
65239;SHT30;51827;51.186;6.926;2023-04-01T01:46:55;19.20;55.13
65239;SHT30;51827;51.186;6.926;2023-04-01T01:47:56;19.18;55.09
65239;SHT30;51827;51.186;6.926;2023-04-01T01:48:59;19.18;55.13
65239;SHT30;51827;51.186;6.926;2023-04-01T01:50:00;19.19;55.12
65239;SHT30;51827;51.186;6.926;2023-04-01T01:51:01;19.19;55.12
65239;SHT30;51827;51.186;6.926;2023-04-01T01:52:02;19.22;55.10
65239;SHT30;51827;51.186;6.926;2023-04-01T01:53:08;19.20;55.09
65239;SHT30;51827;51.186;6.926;2023-04-01T01:54:14;19.22;55.10
65239;SHT30;51827;51.186;6.926;2023-04-01T01:55:33;19.18;55.13
65239;SHT30;51827;51.186;6.926;2023-04-01T01:56:34;19.19;55.10
65239;SHT30;51827;51.186;6.926;2023-04-01T01:57:37;19.20;55.07
65239;SHT30;51827;51.186;6.926;2023-04-01T01:58:44;19.20;55.11
65239;SHT30;51827;51.186;6.926;2023-04-01T01:59:47;19.22;55.11
65239;SHT30;51827;51.186;6.926;2023-04-01T02:00:55;19.22;55.05
65239;SHT30;51827;51.186;6.926;2023-04-01T02:01:56;19.22;55.07
65239;SHT30;51827;51.186;6.926;2023-04-01T02:02:57;19.19;55.07
65239;SHT30;51827;51.186;6.926;2023-04-01T02:03:59;19.20;55.06
65239;SHT30;51827;51.186;6.926;2023-04-01T02:04:59;19.22;55.06
65239;SHT30;51827;51.186;6.926;2023-04-01T02:06:04;19.20;55.09
65239;SHT30;51827;51.186;6.926;2023-04-01T02:07:08;19.22;55.08
65239;SHT30;51827;51.186;6.926;2023-04-01T02:08:16;19.20;55.04
65239;SHT30;51827;51.186;6.926;2023-04-01T02:09:18;19.19;55.09
65239;SHT30;51827;51.186;6.926;2023-04-01T02:10:21;19.20;55.06
65239;SHT30;51827;51.186;6.926;2023-04-01T02:11:30;19.18;55.07
65239;SHT30;51827;51.186;6.926;2023-04-01T02:12:33;19.22;55.09
65239;SHT30;51827;51.186;6.926;2023-04-01T02:13:39;19.19;55.07
65239;SHT30;51827;51.186;6.926;2023-04-01T02:14:53;19.19;55.06
65239;SHT30;51827;51.186;6.926;2023-04-01T02:15:58;19.18;55.09
65239;SHT30;51827;51.186;6.926;2023-04-01T02:17:19;19.16;55.05
65239;SHT30;51827;51.186;6.926;2023-04-01T02:18:20;19.16;55.10
65239;SHT30;51827;51.186;6.926;2023-04-01T02:19:26;19.20;55.07
65239;SHT30;51827;51.186;6.926;2023-04-01T02:20:28;19.19;55.08
65239;SHT30;51827;51.186;6.926;2023-04-01T02:21:31;19.18;55.06
65239;SHT30;51827;51.186;6.926;2023-04-01T02:22:35;19.18;55.06
65239;SHT30;51827;51.186;6.926;2023-04-01T02:23:37;19.19;55.07
65239;SHT30;51827;51.186;6.926;2023-04-01T02:24:40;19.18;55.06
65239;SHT30;51827;51.186;6.926;2023-04-01T02:25:41;19.18;55.02
65239;SHT30;51827;51.186;6.926;2023-04-01T02:26:44;19.18;55.07
65239;SHT30;51827;51.186;6.926;2023-04-01T02:27:45;19.19;55.09
65239;SHT30;51827;51.186;6.926;2023-04-01T02:28:46;19.19;55.09
65239;SHT30;51827;51.186;6.926;2023-04-01T02:29:48;19.18;55.06
65239;SHT30;51827;51.186;6.926;2023-04-01T02:30:49;19.16;55.07
65239;SHT30;51827;51.186;6.926;2023-04-01T02:31:50;19.19;55.09
65239;SHT30;51827;51.186;6.926;2023-04-01T02:32:51;19.19;55.06
65239;SHT30;51827;51.186;6.926;2023-04-01T02:33:52;19.16;55.06
65239;SHT30;51827;51.186;6.926;2023-04-01T02:34:53;19.16;55.08
65239;SHT30;51827;51.186;6.926;2023-04-01T02:35:53;19.19;55.10
65239;SHT30;51827;51.186;6.926;2023-04-01T02:36:55;19.19;55.07
65239;SHT30;51827;51.186;6.926;2023-04-01T02:37:56;19.18;55.08
65239;SHT30;51827;51.186;6.926;2023-04-01T02:38:57;19.18;55.10
65239;SHT30;51827;51.186;6.926;2023-04-01T02:40:06;19.18;55.07
65239;SHT30;51827;51.186;6.926;2023-04-01T02:41:06;19.18;55.08
65239;SHT30;51827;51.186;6.926;2023-04-01T02:42:07;19.18;55.08
65239;SHT30;51827;51.186;6.926;2023-04-01T02:43:07;19.18;55.09
65239;SHT30;51827;51.186;6.926;2023-04-01T02:44:08;19.19;55.07
65239;SHT30;51827;51.186;6.926;2023-04-01T02:45:09;19.16;55.13
65239;SHT30;51827;51.186;6.926;2023-04-01T02:46:09;19.19;55.10
65239;SHT30;51827;51.186;6.926;2023-04-01T02:47:09;19.16;55.10
65239;SHT30;51827;51.186;6.926;2023-04-01T02:48:10;19.18;55.10
65239;SHT30;51827;51.186;6.926;2023-04-01T02:49:10;19.16;55.07
65239;SHT30;51827;51.186;6.926;2023-04-01T02:50:11;19.18;55.12
65239;SHT30;51827;51.186;6.926;2023-04-01T02:51:11;19.18;55.13
65239;SHT30;51827;51.186;6.926;2023-04-01T02:52:11;19.18;55.14
65239;SHT30;51827;51.186;6.926;2023-04-01T02:53:12;19.16;55.15
65239;SHT30;51827;51.186;6.926;2023-04-01T02:54:12;19.15;55.13
65239;SHT30;51827;51.186;6.926;2023-04-01T02:55:12;19.18;55.14
65239;SHT30;51827;51.186;6.926;2023-04-01T02:56:13;19.18;55.14
65239;SHT30;51827;51.186;6.926;2023-04-01T02:57:13;19.16;55.15
65239;SHT30;51827;51.186;6.926;2023-04-01T02:58:13;19.16;55.14
65239;SHT30;51827;51.186;6.926;2023-04-01T02:59:13;19.13;55.12
65239;SHT30;51827;51.186;6.926;2023-04-01T03:00:14;19.16;55.14
65239;SHT30;51827;51.186;6.926;2023-04-01T03:01:15;19.16;55.10
65239;SHT30;51827;51.186;6.926;2023-04-01T03:02:16;19.20;55.12
65239;SHT30;51827;51.186;6.926;2023-04-01T03:03:17;19.18;55.13
65239;SHT30;51827;51.186;6.926;2023-04-01T03:04:17;19.18;55.12
65239;SHT30;51827;51.186;6.926;2023-04-01T03:05:17;19.16;55.14
65239;SHT30;51827;51.186;6.926;2023-04-01T03:06:18;19.16;55.13
65239;SHT30;51827;51.186;6.926;2023-04-01T03:07:18;19.16;55.15
65239;SHT30;51827;51.186;6.926;2023-04-01T03:08:18;19.18;55.13
65239;SHT30;51827;51.186;6.926;2023-04-01T03:09:18;19.18;55.16
65239;SHT30;51827;51.186;6.926;2023-04-01T03:10:19;19.18;55.15
65239;SHT30;51827;51.186;6.926;2023-04-01T03:11:19;19.16;55.15
65239;SHT30;51827;51.186;6.926;2023-04-01T03:12:20;19.16;55.14
65239;SHT30;51827;51.186;6.926;2023-04-01T03:13:20;19.16;55.15
65239;SHT30;51827;51.186;6.926;2023-04-01T03:14:20;19.16;55.16
65239;SHT30;51827;51.186;6.926;2023-04-01T03:15:20;19.15;55.12
65239;SHT30;51827;51.186;6.926;2023-04-01T03:16:21;19.18;55.06
65239;SHT30;51827;51.186;6.926;2023-04-01T03:17:21;19.16;55.12
65239;SHT30;51827;51.186;6.926;2023-04-01T03:18:21;19.18;55.07
65239;SHT30;51827;51.186;6.926;2023-04-01T03:19:21;19.18;55.09
65239;SHT30;51827;51.186;6.926;2023-04-01T03:20:22;19.15;55.07
65239;SHT30;51827;51.186;6.926;2023-04-01T03:21:23;19.16;55.12
65239;SHT30;51827;51.186;6.926;2023-04-01T03:22:23;19.19;55.14
65239;SHT30;51827;51.186;6.926;2023-04-01T03:23:24;19.16;55.13
65239;SHT30;51827;51.186;6.926;2023-04-01T03:24:24;19.18;55.10
65239;SHT30;51827;51.186;6.926;2023-04-01T03:25:24;19.18;55.10
65239;SHT30;51827;51.186;6.926;2023-04-01T03:26:25;19.16;55.11
65239;SHT30;51827;51.186;6.926;2023-04-01T03:27:25;19.16;55.08
65239;SHT30;51827;51.186;6.926;2023-04-01T03:28:25;19.16;55.08
65239;SHT30;51827;51.186;6.926;2023-04-01T03:29:26;19.15;55.10
65239;SHT30;51827;51.186;6.926;2023-04-01T03:30:26;19.18;55.12
65239;SHT30;51827;51.186;6.926;2023-04-01T03:31:27;19.15;55.14
65239;SHT30;51827;51.186;6.926;2023-04-01T03:32:27;19.18;55.14
65239;SHT30;51827;51.186;6.926;2023-04-01T03:33:27;19.16;55.09
65239;SHT30;51827;51.186;6.926;2023-04-01T03:34:27;19.16;55.09
65239;SHT30;51827;51.186;6.926;2023-04-01T03:35:28;19.18;55.09
65239;SHT30;51827;51.186;6.926;2023-04-01T03:36:28;19.15;55.08
65239;SHT30;51827;51.186;6.926;2023-04-01T03:37:28;19.18;55.07
65239;SHT30;51827;51.186;6.926;2023-04-01T03:38:28;19.18;55.06
65239;SHT30;51827;51.186;6.926;2023-04-01T03:39:30;19.16;55.06
65239;SHT30;51827;51.186;6.926;2023-04-01T03:40:31;19.18;55.06
65239;SHT30;51827;51.186;6.926;2023-04-01T03:41:31;19.18;55.05
65239;SHT30;51827;51.186;6.926;2023-04-01T03:42:31;19.15;55.07
65239;SHT30;51827;51.186;6.926;2023-04-01T03:43:32;19.18;55.10
65239;SHT30;51827;51.186;6.926;2023-04-01T03:44:33;19.16;55.05
65239;SHT30;51827;51.186;6.926;2023-04-01T03:45:33;19.18;55.09
65239;SHT30;51827;51.186;6.926;2023-04-01T03:46:34;19.15;55.05
65239;SHT30;51827;51.186;6.926;2023-04-01T03:47:34;19.18;55.05
65239;SHT30;51827;51.186;6.926;2023-04-01T03:48:35;19.18;55.02
65239;SHT30;51827;51.186;6.926;2023-04-01T03:49:35;19.18;55.06
65239;SHT30;51827;51.186;6.926;2023-04-01T03:50:35;19.18;55.07
65239;SHT30;51827;51.186;6.926;2023-04-01T03:51:36;19.18;55.07
65239;SHT30;51827;51.186;6.926;2023-04-01T03:52:36;19.18;55.05
65239;SHT30;51827;51.186;6.926;2023-04-01T03:53:36;19.18;55.03
65239;SHT30;51827;51.186;6.926;2023-04-01T03:54:37;19.18;55.02
65239;SHT30;51827;51.186;6.926;2023-04-01T03:55:38;19.15;55.03
65239;SHT30;51827;51.186;6.926;2023-04-01T03:56:38;19.16;55.03
65239;SHT30;51827;51.186;6.926;2023-04-01T03:57:38;19.15;55.01
65239;SHT30;51827;51.186;6.926;2023-04-01T03:58:39;19.16;55.08
65239;SHT30;51827;51.186;6.926;2023-04-01T03:59:39;19.13;55.03
65239;SHT30;51827;51.186;6.926;2023-04-01T04:00:39;19.13;55.05
65239;SHT30;51827;51.186;6.926;2023-04-01T04:01:40;19.16;55.02
65239;SHT30;51827;51.186;6.926;2023-04-01T04:02:40;19.18;55.02
65239;SHT30;51827;51.186;6.926;2023-04-01T04:03:40;19.15;55.05
65239;SHT30;51827;51.186;6.926;2023-04-01T04:04:40;19.15;55.01
65239;SHT30;51827;51.186;6.926;2023-04-01T04:05:48;19.16;54.96
65239;SHT30;51827;51.186;6.926;2023-04-01T04:06:48;19.15;55.04
65239;SHT30;51827;51.186;6.926;2023-04-01T04:07:49;19.16;55.00
65239;SHT30;51827;51.186;6.926;2023-04-01T04:08:49;19.18;54.98
65239;SHT30;51827;51.186;6.926;2023-04-01T04:09:50;19.15;54.99
65239;SHT30;51827;51.186;6.926;2023-04-01T04:10:56;19.15;54.99
65239;SHT30;51827;51.186;6.926;2023-04-01T04:11:56;19.15;55.02
65239;SHT30;51827;51.186;6.926;2023-04-01T04:12:56;19.16;54.99
65239;SHT30;51827;51.186;6.926;2023-04-01T04:13:57;19.16;55.00
65239;SHT30;51827;51.186;6.926;2023-04-01T04:14:57;19.18;54.98
65239;SHT30;51827;51.186;6.926;2023-04-01T04:15:58;19.13;54.99
65239;SHT30;51827;51.186;6.926;2023-04-01T04:16:58;19.16;54.96
65239;SHT30;51827;51.186;6.926;2023-04-01T04:17:58;19.16;54.95
65239;SHT30;51827;51.186;6.926;2023-04-01T04:18:59;19.16;54.92
65239;SHT30;51827;51.186;6.926;2023-04-01T04:19:59;19.18;54.96
65239;SHT30;51827;51.186;6.926;2023-04-01T04:20:59;19.18;54.98
65239;SHT30;51827;51.186;6.926;2023-04-01T04:21:59;19.15;54.98
65239;SHT30;51827;51.186;6.926;2023-04-01T04:23:00;19.15;54.96
65239;SHT30;51827;51.186;6.926;2023-04-01T04:24:01;19.15;54.98
65239;SHT30;51827;51.186;6.926;2023-04-01T04:25:01;19.15;55.00
65239;SHT30;51827;51.186;6.926;2023-04-01T04:26:03;19.15;54.96
65239;SHT30;51827;51.186;6.926;2023-04-01T04:27:04;19.18;54.97
65239;SHT30;51827;51.186;6.926;2023-04-01T04:28:04;19.15;54.97
65239;SHT30;51827;51.186;6.926;2023-04-01T04:29:04;19.16;54.98
65239;SHT30;51827;51.186;6.926;2023-04-01T04:30:06;19.13;54.99
65239;SHT30;51827;51.186;6.926;2023-04-01T04:31:06;19.13;54.95
65239;SHT30;51827;51.186;6.926;2023-04-01T04:32:07;19.15;54.97
65239;SHT30;51827;51.186;6.926;2023-04-01T04:33:07;19.15;54.97
65239;SHT30;51827;51.186;6.926;2023-04-01T04:34:07;19.16;54.98
65239;SHT30;51827;51.186;6.926;2023-04-01T04:35:08;19.15;55.00
65239;SHT30;51827;51.186;6.926;2023-04-01T04:36:08;19.13;54.96
65239;SHT30;51827;51.186;6.926;2023-04-01T04:37:08;19.13;54.99
65239;SHT30;51827;51.186;6.926;2023-04-01T04:38:09;19.15;54.96
65239;SHT30;51827;51.186;6.926;2023-04-01T04:39:09;19.15;54.95
65239;SHT30;51827;51.186;6.926;2023-04-01T04:40:10;19.16;54.96
65239;SHT30;51827;51.186;6.926;2023-04-01T04:41:11;19.13;54.95
65239;SHT30;51827;51.186;6.926;2023-04-01T04:42:11;19.15;54.96
65239;SHT30;51827;51.186;6.926;2023-04-01T04:43:13;19.15;54.92
65239;SHT30;51827;51.186;6.926;2023-04-01T04:44:14;19.16;54.94
65239;SHT30;51827;51.186;6.926;2023-04-01T04:45:14;19.13;54.93
65239;SHT30;51827;51.186;6.926;2023-04-01T04:46:14;19.15;54.96
65239;SHT30;51827;51.186;6.926;2023-04-01T04:47:14;19.15;54.94
65239;SHT30;51827;51.186;6.926;2023-04-01T04:48:15;19.16;54.93
65239;SHT30;51827;51.186;6.926;2023-04-01T04:49:16;19.15;54.93
65239;SHT30;51827;51.186;6.926;2023-04-01T04:50:16;19.15;54.95
65239;SHT30;51827;51.186;6.926;2023-04-01T04:51:18;19.15;54.88
65239;SHT30;51827;51.186;6.926;2023-04-01T04:52:18;19.13;54.95
65239;SHT30;51827;51.186;6.926;2023-04-01T04:53:19;19.16;54.90
65239;SHT30;51827;51.186;6.926;2023-04-01T04:54:19;19.13;54.93
65239;SHT30;51827;51.186;6.926;2023-04-01T04:55:20;19.16;54.90
65239;SHT30;51827;51.186;6.926;2023-04-01T04:56:22;19.15;54.92
65239;SHT30;51827;51.186;6.926;2023-04-01T04:57:22;19.16;54.90
65239;SHT30;51827;51.186;6.926;2023-04-01T04:58:22;19.13;54.92
65239;SHT30;51827;51.186;6.926;2023-04-01T04:59:23;19.15;54.87
65239;SHT30;51827;51.186;6.926;2023-04-01T05:00:23;19.15;54.89
65239;SHT30;51827;51.186;6.926;2023-04-01T05:01:23;19.15;54.92
65239;SHT30;51827;51.186;6.926;2023-04-01T05:02:24;19.13;54.88
65239;SHT30;51827;51.186;6.926;2023-04-01T05:03:24;19.15;54.90
65239;SHT30;51827;51.186;6.926;2023-04-01T05:04:24;19.12;54.90
65239;SHT30;51827;51.186;6.926;2023-04-01T05:05:24;19.15;54.92
65239;SHT30;51827;51.186;6.926;2023-04-01T05:06:25;19.18;54.91
65239;SHT30;51827;51.186;6.926;2023-04-01T05:07:25;19.16;54.92
65239;SHT30;51827;51.186;6.926;2023-04-01T05:08:25;19.15;54.91
65239;SHT30;51827;51.186;6.926;2023-04-01T05:09:26;19.13;54.92
65239;SHT30;51827;51.186;6.926;2023-04-01T05:10:26;19.10;54.92
65239;SHT30;51827;51.186;6.926;2023-04-01T05:11:26;19.13;54.91
65239;SHT30;51827;51.186;6.926;2023-04-01T05:12:26;19.15;54.94
65239;SHT30;51827;51.186;6.926;2023-04-01T05:13:27;19.13;54.92
65239;SHT30;51827;51.186;6.926;2023-04-01T05:14:27;19.13;54.94
65239;SHT30;51827;51.186;6.926;2023-04-01T05:15:28;19.13;54.89
65239;SHT30;51827;51.186;6.926;2023-04-01T05:16:28;19.13;54.90
65239;SHT30;51827;51.186;6.926;2023-04-01T05:17:28;19.15;54.90
65239;SHT30;51827;51.186;6.926;2023-04-01T05:18:28;19.15;54.90
65239;SHT30;51827;51.186;6.926;2023-04-01T05:19:29;19.13;54.89
65239;SHT30;51827;51.186;6.926;2023-04-01T05:20:29;19.15;54.89
65239;SHT30;51827;51.186;6.926;2023-04-01T05:21:29;19.13;54.90
65239;SHT30;51827;51.186;6.926;2023-04-01T05:22:29;19.13;54.91
65239;SHT30;51827;51.186;6.926;2023-04-01T05:23:31;19.15;54.91
65239;SHT30;51827;51.186;6.926;2023-04-01T05:24:32;19.13;54.92
65239;SHT30;51827;51.186;6.926;2023-04-01T05:25:32;19.15;54.90
65239;SHT30;51827;51.186;6.926;2023-04-01T05:26:32;19.13;54.89
65239;SHT30;51827;51.186;6.926;2023-04-01T05:27:33;19.16;54.90
65239;SHT30;51827;51.186;6.926;2023-04-01T05:28:33;19.15;54.85
65239;SHT30;51827;51.186;6.926;2023-04-01T05:29:33;19.13;54.97
65239;SHT30;51827;51.186;6.926;2023-04-01T05:30:33;19.15;54.91
65239;SHT30;51827;51.186;6.926;2023-04-01T05:31:34;19.13;54.93
65239;SHT30;51827;51.186;6.926;2023-04-01T05:32:34;19.13;54.90
65239;SHT30;51827;51.186;6.926;2023-04-01T05:33:34;19.15;54.88
65239;SHT30;51827;51.186;6.926;2023-04-01T05:34:34;19.13;54.92
65239;SHT30;51827;51.186;6.926;2023-04-01T05:35:35;19.15;54.91
65239;SHT30;51827;51.186;6.926;2023-04-01T05:36:35;19.16;54.90
65239;SHT30;51827;51.186;6.926;2023-04-01T05:37:36;19.15;54.88
65239;SHT30;51827;51.186;6.926;2023-04-01T05:38:37;19.15;54.87
65239;SHT30;51827;51.186;6.926;2023-04-01T05:39:38;19.13;54.90
65239;SHT30;51827;51.186;6.926;2023-04-01T05:40:38;19.16;54.90
65239;SHT30;51827;51.186;6.926;2023-04-01T05:41:38;19.16;54.86
65239;SHT30;51827;51.186;6.926;2023-04-01T05:42:39;19.18;54.89
65239;SHT30;51827;51.186;6.926;2023-04-01T05:43:39;19.15;54.91
65239;SHT30;51827;51.186;6.926;2023-04-01T05:44:40;19.15;54.89
65239;SHT30;51827;51.186;6.926;2023-04-01T05:45:40;19.13;54.88
65239;SHT30;51827;51.186;6.926;2023-04-01T05:46:41;19.15;54.88
65239;SHT30;51827;51.186;6.926;2023-04-01T05:47:41;19.13;54.87
65239;SHT30;51827;51.186;6.926;2023-04-01T05:48:42;19.15;54.89
65239;SHT30;51827;51.186;6.926;2023-04-01T05:49:42;19.15;54.87
65239;SHT30;51827;51.186;6.926;2023-04-01T05:50:42;19.16;54.88
65239;SHT30;51827;51.186;6.926;2023-04-01T05:51:42;19.18;54.90
65239;SHT30;51827;51.186;6.926;2023-04-01T05:52:43;19.15;54.91
65239;SHT30;51827;51.186;6.926;2023-04-01T05:53:43;19.16;54.87
65239;SHT30;51827;51.186;6.926;2023-04-01T05:54:43;19.15;54.89
65239;SHT30;51827;51.186;6.926;2023-04-01T05:55:44;19.13;54.93
65239;SHT30;51827;51.186;6.926;2023-04-01T05:56:44;19.13;54.91
65239;SHT30;51827;51.186;6.926;2023-04-01T05:57:45;19.15;54.89
65239;SHT30;51827;51.186;6.926;2023-04-01T05:58:51;19.12;54.90
65239;SHT30;51827;51.186;6.926;2023-04-01T05:59:53;19.12;54.90
65239;SHT30;51827;51.186;6.926;2023-04-01T06:01:04;19.12;54.92
65239;SHT30;51827;51.186;6.926;2023-04-01T06:02:04;19.12;54.92
65239;SHT30;51827;51.186;6.926;2023-04-01T06:03:05;19.12;54.90
65239;SHT30;51827;51.186;6.926;2023-04-01T06:04:05;19.12;54.90
65239;SHT30;51827;51.186;6.926;2023-04-01T06:06:26;19.15;54.90
65239;SHT30;51827;51.186;6.926;2023-04-01T06:07:27;19.13;54.93
65239;SHT30;51827;51.186;6.926;2023-04-01T06:08:28;19.13;54.90
65239;SHT30;51827;51.186;6.926;2023-04-01T06:09:30;19.15;54.86
65239;SHT30;51827;51.186;6.926;2023-04-01T06:10:58;19.12;54.85
65239;SHT30;51827;51.186;6.926;2023-04-01T06:15:59;19.15;54.89
65239;SHT30;51827;51.186;6.926;2023-04-01T06:19:48;19.10;54.90
65239;SHT30;51827;51.186;6.926;2023-04-01T06:22:51;19.13;54.87
65239;SHT30;51827;51.186;6.926;2023-04-01T06:26:37;19.13;54.92
65239;SHT30;51827;51.186;6.926;2023-04-01T06:29:33;19.12;54.87
65239;SHT30;51827;51.186;6.926;2023-04-01T06:39:57;19.12;54.90
65239;SHT30;51827;51.186;6.926;2023-04-01T06:46:06;19.10;54.91
65239;SHT30;51827;51.186;6.926;2023-04-01T06:47:45;19.12;54.94
65239;SHT30;51827;51.186;6.926;2023-04-01T06:50:44;19.13;55.04
65239;SHT30;51827;51.186;6.926;2023-04-01T06:54:20;19.13;55.05
65239;SHT30;51827;51.186;6.926;2023-04-01T06:55:34;19.12;55.09
65239;SHT30;51827;51.186;6.926;2023-04-01T06:56:37;19.10;55.12
65239;SHT30;51827;51.186;6.926;2023-04-01T06:57:42;19.12;55.20
65239;SHT30;51827;51.186;6.926;2023-04-01T06:58:57;19.10;55.24
65239;SHT30;51827;51.186;6.926;2023-04-01T07:00:01;19.12;55.25
65239;SHT30;51827;51.186;6.926;2023-04-01T07:01:04;19.12;55.33
65239;SHT30;51827;51.186;6.926;2023-04-01T07:02:16;19.12;55.36
65239;SHT30;51827;51.186;6.926;2023-04-01T07:03:41;19.10;55.36
65239;SHT30;51827;51.186;6.926;2023-04-01T07:04:46;19.12;55.38
65239;SHT30;51827;51.186;6.926;2023-04-01T07:05:48;19.10;55.37
65239;SHT30;51827;51.186;6.926;2023-04-01T07:06:54;19.12;55.41
65239;SHT30;51827;51.186;6.926;2023-04-01T07:07:58;19.13;55.41
65239;SHT30;51827;51.186;6.926;2023-04-01T07:09:02;19.09;55.43
65239;SHT30;51827;51.186;6.926;2023-04-01T07:10:11;19.12;55.40
65239;SHT30;51827;51.186;6.926;2023-04-01T07:11:33;19.10;55.42
65239;SHT30;51827;51.186;6.926;2023-04-01T07:12:46;19.09;55.43
65239;SHT30;51827;51.186;6.926;2023-04-01T07:13:51;19.12;55.44
65239;SHT30;51827;51.186;6.926;2023-04-01T07:14:54;19.13;55.41
65239;SHT30;51827;51.186;6.926;2023-04-01T07:16:12;19.10;55.43
65239;SHT30;51827;51.186;6.926;2023-04-01T07:17:21;19.10;55.41
65239;SHT30;51827;51.186;6.926;2023-04-01T07:18:29;19.12;55.42
65239;SHT30;51827;51.186;6.926;2023-04-01T07:19:42;19.13;55.43
65239;SHT30;51827;51.186;6.926;2023-04-01T07:20:45;19.10;55.41
65239;SHT30;51827;51.186;6.926;2023-04-01T07:21:49;19.13;55.38
65239;SHT30;51827;51.186;6.926;2023-04-01T07:22:57;19.15;55.38